sensor_id;sensor_type;location;lat;lon;timestamp;P1;durP1;ratioP1;P2;durP2;ratioP2
39728;SDS011;25402;42.004;23.088;2024-03-07T00:00:57;31.58;;;17.83;;
39728;SDS011;25402;42.004;23.088;2024-03-07T00:03:25;35.05;;;18.25;;
39728;SDS011;25402;42.004;23.088;2024-03-07T00:05:52;26.58;;;16.58;;
39728;SDS011;25402;42.004;23.088;2024-03-07T00:08:19;30.17;;;17.50;;
39728;SDS011;25402;42.004;23.088;2024-03-07T00:10:48;32.75;;;18.00;;
39728;SDS011;25402;42.004;23.088;2024-03-07T00:13:15;36.20;;;18.70;;
39728;SDS011;25402;42.004;23.088;2024-03-07T00:15:42;33.42;;;18.02;;
39728;SDS011;25402;42.004;23.088;2024-03-07T00:18:09;29.13;;;17.00;;
39728;SDS011;25402;42.004;23.088;2024-03-07T00:20:36;28.95;;;16.65;;
39728;SDS011;25402;42.004;23.088;2024-03-07T00:23:03;32.78;;;17.30;;
39728;SDS011;25402;42.004;23.088;2024-03-07T00:25:31;30.92;;;16.88;;
39728;SDS011;25402;42.004;23.088;2024-03-07T00:27:59;31.08;;;17.33;;
39728;SDS011;25402;42.004;23.088;2024-03-07T00:30:28;35.40;;;17.92;;
39728;SDS011;25402;42.004;23.088;2024-03-07T00:32:56;35.10;;;18.80;;
39728;SDS011;25402;42.004;23.088;2024-03-07T00:35:24;31.80;;;19.17;;
39728;SDS011;25402;42.004;23.088;2024-03-07T00:37:51;35.08;;;19.60;;
39728;SDS011;25402;42.004;23.088;2024-03-07T00:40:18;35.58;;;20.55;;
39728;SDS011;25402;42.004;23.088;2024-03-07T00:42:45;37.83;;;20.90;;
39728;SDS011;25402;42.004;23.088;2024-03-07T00:45:14;42.53;;;21.58;;
39728;SDS011;25402;42.004;23.088;2024-03-07T00:47:41;33.55;;;20.60;;
39728;SDS011;25402;42.004;23.088;2024-03-07T00:50:09;30.23;;;17.58;;
39728;SDS011;25402;42.004;23.088;2024-03-07T00:52:36;31.40;;;17.70;;
39728;SDS011;25402;42.004;23.088;2024-03-07T00:55:05;35.03;;;17.70;;
39728;SDS011;25402;42.004;23.088;2024-03-07T00:57:33;27.13;;;16.98;;
39728;SDS011;25402;42.004;23.088;2024-03-07T01:00:01;29.27;;;17.35;;
39728;SDS011;25402;42.004;23.088;2024-03-07T01:02:29;32.10;;;17.40;;
39728;SDS011;25402;42.004;23.088;2024-03-07T01:04:56;29.00;;;17.23;;
39728;SDS011;25402;42.004;23.088;2024-03-07T01:07:24;29.27;;;17.30;;
39728;SDS011;25402;42.004;23.088;2024-03-07T01:09:53;29.42;;;17.42;;
39728;SDS011;25402;42.004;23.088;2024-03-07T01:12:20;28.23;;;16.88;;
39728;SDS011;25402;42.004;23.088;2024-03-07T01:14:49;30.92;;;17.33;;
39728;SDS011;25402;42.004;23.088;2024-03-07T01:17:16;32.55;;;17.10;;
39728;SDS011;25402;42.004;23.088;2024-03-07T01:19:44;31.10;;;16.75;;
39728;SDS011;25402;42.004;23.088;2024-03-07T01:22:12;26.27;;;17.02;;
39728;SDS011;25402;42.004;23.088;2024-03-07T01:24:39;31.88;;;18.17;;
39728;SDS011;25402;42.004;23.088;2024-03-07T01:27:06;26.48;;;16.38;;
39728;SDS011;25402;42.004;23.088;2024-03-07T01:29:33;29.95;;;17.40;;
39728;SDS011;25402;42.004;23.088;2024-03-07T01:32:00;28.80;;;17.88;;
39728;SDS011;25402;42.004;23.088;2024-03-07T01:34:28;29.38;;;17.73;;
39728;SDS011;25402;42.004;23.088;2024-03-07T01:36:56;26.77;;;17.25;;
39728;SDS011;25402;42.004;23.088;2024-03-07T01:39:23;32.35;;;17.88;;
39728;SDS011;25402;42.004;23.088;2024-03-07T01:41:50;29.70;;;17.25;;
39728;SDS011;25402;42.004;23.088;2024-03-07T01:44:17;30.25;;;17.35;;
39728;SDS011;25402;42.004;23.088;2024-03-07T01:46:44;32.72;;;18.85;;
39728;SDS011;25402;42.004;23.088;2024-03-07T01:49:12;30.15;;;18.20;;
39728;SDS011;25402;42.004;23.088;2024-03-07T01:51:39;30.48;;;19.13;;
39728;SDS011;25402;42.004;23.088;2024-03-07T01:54:07;33.10;;;17.77;;
39728;SDS011;25402;42.004;23.088;2024-03-07T01:56:36;31.33;;;18.45;;
39728;SDS011;25402;42.004;23.088;2024-03-07T01:59:05;29.80;;;16.73;;
39728;SDS011;25402;42.004;23.088;2024-03-07T02:01:33;25.48;;;14.07;;
39728;SDS011;25402;42.004;23.088;2024-03-07T02:04:02;17.55;;;9.95;;
39728;SDS011;25402;42.004;23.088;2024-03-07T02:06:29;16.85;;;10.40;;
39728;SDS011;25402;42.004;23.088;2024-03-07T02:08:56;9.25;;;6.20;;
39728;SDS011;25402;42.004;23.088;2024-03-07T02:11:25;9.85;;;6.43;;
39728;SDS011;25402;42.004;23.088;2024-03-07T02:13:52;10.15;;;6.03;;
39728;SDS011;25402;42.004;23.088;2024-03-07T02:16:19;9.38;;;5.40;;
39728;SDS011;25402;42.004;23.088;2024-03-07T02:18:46;6.53;;;4.82;;
39728;SDS011;25402;42.004;23.088;2024-03-07T02:21:16;6.13;;;4.35;;
39728;SDS011;25402;42.004;23.088;2024-03-07T02:23:43;6.90;;;4.78;;
39728;SDS011;25402;42.004;23.088;2024-03-07T02:26:10;8.90;;;5.13;;
39728;SDS011;25402;42.004;23.088;2024-03-07T02:28:37;7.25;;;5.30;;
39728;SDS011;25402;42.004;23.088;2024-03-07T02:31:04;7.38;;;5.05;;
39728;SDS011;25402;42.004;23.088;2024-03-07T02:33:32;8.77;;;5.72;;
39728;SDS011;25402;42.004;23.088;2024-03-07T02:35:59;11.25;;;6.60;;
39728;SDS011;25402;42.004;23.088;2024-03-07T02:38:27;12.93;;;7.15;;
39728;SDS011;25402;42.004;23.088;2024-03-07T02:40:54;10.68;;;7.10;;
39728;SDS011;25402;42.004;23.088;2024-03-07T02:43:23;12.77;;;7.60;;
39728;SDS011;25402;42.004;23.088;2024-03-07T02:45:50;13.60;;;9.07;;
39728;SDS011;25402;42.004;23.088;2024-03-07T02:48:17;11.82;;;8.00;;
39728;SDS011;25402;42.004;23.088;2024-03-07T02:50:44;16.98;;;8.57;;
39728;SDS011;25402;42.004;23.088;2024-03-07T02:53:12;13.35;;;9.18;;
39728;SDS011;25402;42.004;23.088;2024-03-07T02:55:41;15.77;;;9.65;;
39728;SDS011;25402;42.004;23.088;2024-03-07T02:58:08;14.50;;;8.90;;
39728;SDS011;25402;42.004;23.088;2024-03-07T03:00:35;17.90;;;10.02;;
39728;SDS011;25402;42.004;23.088;2024-03-07T03:03:02;15.07;;;9.35;;
39728;SDS011;25402;42.004;23.088;2024-03-07T03:05:30;14.80;;;9.63;;
39728;SDS011;25402;42.004;23.088;2024-03-07T03:07:57;15.10;;;9.80;;
39728;SDS011;25402;42.004;23.088;2024-03-07T03:10:25;16.73;;;9.95;;
39728;SDS011;25402;42.004;23.088;2024-03-07T03:12:55;15.80;;;10.00;;
39728;SDS011;25402;42.004;23.088;2024-03-07T03:15:24;15.32;;;8.43;;
39728;SDS011;25402;42.004;23.088;2024-03-07T03:17:52;14.82;;;9.73;;
39728;SDS011;25402;42.004;23.088;2024-03-07T03:20:19;15.00;;;9.52;;
39728;SDS011;25402;42.004;23.088;2024-03-07T03:22:51;15.40;;;9.45;;
39728;SDS011;25402;42.004;23.088;2024-03-07T03:25:19;15.70;;;9.73;;
39728;SDS011;25402;42.004;23.088;2024-03-07T03:27:48;15.73;;;8.70;;
39728;SDS011;25402;42.004;23.088;2024-03-07T03:30:17;14.15;;;8.00;;
39728;SDS011;25402;42.004;23.088;2024-03-07T03:32:45;10.23;;;6.80;;
39728;SDS011;25402;42.004;23.088;2024-03-07T03:35:13;11.85;;;6.30;;
39728;SDS011;25402;42.004;23.088;2024-03-07T03:37:41;12.68;;;6.53;;
39728;SDS011;25402;42.004;23.088;2024-03-07T03:40:08;8.40;;;6.13;;
39728;SDS011;25402;42.004;23.088;2024-03-07T03:42:38;7.57;;;5.30;;
39728;SDS011;25402;42.004;23.088;2024-03-07T03:45:06;12.20;;;5.88;;
39728;SDS011;25402;42.004;23.088;2024-03-07T03:47:36;10.13;;;5.88;;
39728;SDS011;25402;42.004;23.088;2024-03-07T03:50:04;11.10;;;6.20;;
39728;SDS011;25402;42.004;23.088;2024-03-07T03:52:32;10.52;;;6.20;;
39728;SDS011;25402;42.004;23.088;2024-03-07T03:55:01;8.80;;;6.22;;
39728;SDS011;25402;42.004;23.088;2024-03-07T03:57:29;9.23;;;6.28;;
39728;SDS011;25402;42.004;23.088;2024-03-07T03:59:57;9.60;;;6.07;;
39728;SDS011;25402;42.004;23.088;2024-03-07T04:02:24;10.23;;;6.00;;
39728;SDS011;25402;42.004;23.088;2024-03-07T04:04:53;8.88;;;6.03;;
39728;SDS011;25402;42.004;23.088;2024-03-07T04:07:20;9.50;;;6.05;;
39728;SDS011;25402;42.004;23.088;2024-03-07T04:09:47;7.95;;;6.05;;
39728;SDS011;25402;42.004;23.088;2024-03-07T04:12:14;10.60;;;6.63;;
39728;SDS011;25402;42.004;23.088;2024-03-07T04:14:41;13.90;;;6.97;;
39728;SDS011;25402;42.004;23.088;2024-03-07T04:17:09;12.60;;;6.78;;
39728;SDS011;25402;42.004;23.088;2024-03-07T04:19:38;10.18;;;6.72;;
39728;SDS011;25402;42.004;23.088;2024-03-07T04:22:08;10.70;;;5.95;;
39728;SDS011;25402;42.004;23.088;2024-03-07T04:24:35;17.45;;;6.57;;
39728;SDS011;25402;42.004;23.088;2024-03-07T04:27:03;15.75;;;6.28;;
39728;SDS011;25402;42.004;23.088;2024-03-07T04:29:30;13.55;;;5.97;;
39728;SDS011;25402;42.004;23.088;2024-03-07T04:31:58;16.20;;;4.93;;
39728;SDS011;25402;42.004;23.088;2024-03-07T04:34:26;12.25;;;5.20;;
39728;SDS011;25402;42.004;23.088;2024-03-07T04:36:55;11.48;;;4.72;;
39728;SDS011;25402;42.004;23.088;2024-03-07T04:39:25;6.18;;;4.35;;
39728;SDS011;25402;42.004;23.088;2024-03-07T04:41:57;11.35;;;4.65;;
39728;SDS011;25402;42.004;23.088;2024-03-07T04:44:26;6.03;;;4.18;;
39728;SDS011;25402;42.004;23.088;2024-03-07T04:46:53;9.07;;;4.63;;
39728;SDS011;25402;42.004;23.088;2024-03-07T04:49:22;9.30;;;4.53;;
39728;SDS011;25402;42.004;23.088;2024-03-07T04:51:50;13.07;;;5.07;;
39728;SDS011;25402;42.004;23.088;2024-03-07T04:54:17;11.13;;;4.53;;
39728;SDS011;25402;42.004;23.088;2024-03-07T04:56:46;6.45;;;4.35;;
39728;SDS011;25402;42.004;23.088;2024-03-07T04:59:13;5.63;;;4.15;;
39728;SDS011;25402;42.004;23.088;2024-03-07T05:01:41;7.55;;;4.47;;
39728;SDS011;25402;42.004;23.088;2024-03-07T05:04:09;9.90;;;4.22;;
39728;SDS011;25402;42.004;23.088;2024-03-07T05:06:38;12.95;;;7.15;;
39728;SDS011;25402;42.004;23.088;2024-03-07T05:09:06;15.75;;;9.75;;
39728;SDS011;25402;42.004;23.088;2024-03-07T05:11:35;10.48;;;6.68;;
39728;SDS011;25402;42.004;23.088;2024-03-07T05:14:04;13.40;;;8.90;;
39728;SDS011;25402;42.004;23.088;2024-03-07T05:16:31;11.30;;;7.25;;
39728;SDS011;25402;42.004;23.088;2024-03-07T05:18:58;11.30;;;7.35;;
39728;SDS011;25402;42.004;23.088;2024-03-07T05:21:25;10.90;;;6.75;;
39728;SDS011;25402;42.004;23.088;2024-03-07T05:23:59;8.57;;;5.85;;
39728;SDS011;25402;42.004;23.088;2024-03-07T05:26:26;8.43;;;6.30;;
39728;SDS011;25402;42.004;23.088;2024-03-07T05:28:54;11.05;;;6.25;;
39728;SDS011;25402;42.004;23.088;2024-03-07T05:31:23;8.38;;;5.50;;
39728;SDS011;25402;42.004;23.088;2024-03-07T05:33:50;8.88;;;5.05;;
39728;SDS011;25402;42.004;23.088;2024-03-07T05:36:17;7.38;;;4.38;;
39728;SDS011;25402;42.004;23.088;2024-03-07T05:38:45;6.55;;;4.25;;
39728;SDS011;25402;42.004;23.088;2024-03-07T05:41:12;10.57;;;4.57;;
39728;SDS011;25402;42.004;23.088;2024-03-07T05:43:39;8.18;;;3.72;;
39728;SDS011;25402;42.004;23.088;2024-03-07T05:46:06;4.68;;;2.88;;
39728;SDS011;25402;42.004;23.088;2024-03-07T05:48:36;2.20;;;1.48;;
39728;SDS011;25402;42.004;23.088;2024-03-07T05:51:03;2.15;;;1.33;;
39728;SDS011;25402;42.004;23.088;2024-03-07T05:53:32;3.33;;;2.08;;
39728;SDS011;25402;42.004;23.088;2024-03-07T05:56:00;1.15;;;1.02;;
39728;SDS011;25402;42.004;23.088;2024-03-07T05:58:27;1.58;;;1.40;;
39728;SDS011;25402;42.004;23.088;2024-03-07T06:00:54;2.50;;;1.90;;
39728;SDS011;25402;42.004;23.088;2024-03-07T06:03:21;9.43;;;2.10;;
39728;SDS011;25402;42.004;23.088;2024-03-07T06:05:52;6.53;;;2.10;;
39728;SDS011;25402;42.004;23.088;2024-03-07T06:08:19;3.22;;;2.10;;
39728;SDS011;25402;42.004;23.088;2024-03-07T06:10:48;2.45;;;2.00;;
39728;SDS011;25402;42.004;23.088;2024-03-07T06:13:16;7.60;;;4.30;;
39728;SDS011;25402;42.004;23.088;2024-03-07T06:15:43;13.80;;;5.90;;
39728;SDS011;25402;42.004;23.088;2024-03-07T06:18:11;7.78;;;5.00;;
39728;SDS011;25402;42.004;23.088;2024-03-07T06:20:39;9.73;;;5.45;;
39728;SDS011;25402;42.004;23.088;2024-03-07T06:23:08;6.60;;;3.67;;
39728;SDS011;25402;42.004;23.088;2024-03-07T06:25:37;12.73;;;7.03;;
39728;SDS011;25402;42.004;23.088;2024-03-07T06:28:12;17.17;;;8.63;;
39728;SDS011;25402;42.004;23.088;2024-03-07T06:30:40;14.90;;;8.35;;
39728;SDS011;25402;42.004;23.088;2024-03-07T06:33:08;7.97;;;3.08;;
39728;SDS011;25402;42.004;23.088;2024-03-07T06:35:35;8.00;;;4.85;;
39728;SDS011;25402;42.004;23.088;2024-03-07T06:38:03;7.22;;;4.07;;
39728;SDS011;25402;42.004;23.088;2024-03-07T06:40:34;4.85;;;2.90;;
39728;SDS011;25402;42.004;23.088;2024-03-07T06:43:01;5.60;;;2.53;;
39728;SDS011;25402;42.004;23.088;2024-03-07T06:45:31;7.78;;;2.45;;
39728;SDS011;25402;42.004;23.088;2024-03-07T06:47:59;5.25;;;2.80;;
39728;SDS011;25402;42.004;23.088;2024-03-07T06:50:26;3.53;;;2.20;;
39728;SDS011;25402;42.004;23.088;2024-03-07T06:52:54;7.80;;;3.50;;
39728;SDS011;25402;42.004;23.088;2024-03-07T06:55:22;10.88;;;6.75;;
39728;SDS011;25402;42.004;23.088;2024-03-07T06:57:50;9.00;;;5.82;;
39728;SDS011;25402;42.004;23.088;2024-03-07T07:00:19;10.80;;;6.07;;
39728;SDS011;25402;42.004;23.088;2024-03-07T07:02:46;5.50;;;2.80;;
39728;SDS011;25402;42.004;23.088;2024-03-07T07:05:14;3.72;;;1.95;;
39728;SDS011;25402;42.004;23.088;2024-03-07T07:07:43;4.50;;;2.05;;
39728;SDS011;25402;42.004;23.088;2024-03-07T07:10:11;2.53;;;1.50;;
39728;SDS011;25402;42.004;23.088;2024-03-07T07:12:43;2.97;;;2.25;;
39728;SDS011;25402;42.004;23.088;2024-03-07T07:15:13;4.57;;;2.13;;
39728;SDS011;25402;42.004;23.088;2024-03-07T07:17:41;4.78;;;1.80;;
39728;SDS011;25402;42.004;23.088;2024-03-07T07:20:12;18.08;;;8.75;;
39728;SDS011;25402;42.004;23.088;2024-03-07T07:22:40;21.52;;;11.55;;
39728;SDS011;25402;42.004;23.088;2024-03-07T07:25:07;27.55;;;13.07;;
39728;SDS011;25402;42.004;23.088;2024-03-07T07:27:40;26.15;;;11.93;;
39728;SDS011;25402;42.004;23.088;2024-03-07T07:30:09;7.63;;;4.50;;
39728;SDS011;25402;42.004;23.088;2024-03-07T07:32:38;11.27;;;4.97;;
39728;SDS011;25402;42.004;23.088;2024-03-07T07:35:07;13.52;;;4.13;;
39728;SDS011;25402;42.004;23.088;2024-03-07T07:37:37;7.57;;;4.05;;
39728;SDS011;25402;42.004;23.088;2024-03-07T07:40:05;8.93;;;4.63;;
39728;SDS011;25402;42.004;23.088;2024-03-07T07:42:34;7.38;;;4.78;;
39728;SDS011;25402;42.004;23.088;2024-03-07T07:45:05;7.30;;;5.03;;
39728;SDS011;25402;42.004;23.088;2024-03-07T07:47:36;9.00;;;3.88;;
39728;SDS011;25402;42.004;23.088;2024-03-07T07:50:07;18.70;;;10.85;;
39728;SDS011;25402;42.004;23.088;2024-03-07T07:52:39;13.20;;;8.90;;
39728;SDS011;25402;42.004;23.088;2024-03-07T07:55:08;12.60;;;6.95;;
39728;SDS011;25402;42.004;23.088;2024-03-07T07:57:40;10.13;;;6.97;;
39728;SDS011;25402;42.004;23.088;2024-03-07T08:00:09;11.70;;;6.00;;
39728;SDS011;25402;42.004;23.088;2024-03-07T08:02:39;12.77;;;5.72;;
39728;SDS011;25402;42.004;23.088;2024-03-07T08:05:06;36.60;;;23.08;;
39728;SDS011;25402;42.004;23.088;2024-03-07T08:07:36;53.55;;;29.10;;
39728;SDS011;25402;42.004;23.088;2024-03-07T08:10:03;20.05;;;12.52;;
39728;SDS011;25402;42.004;23.088;2024-03-07T08:12:31;15.52;;;8.95;;
39728;SDS011;25402;42.004;23.088;2024-03-07T08:14:58;53.33;;;30.08;;
39728;SDS011;25402;42.004;23.088;2024-03-07T08:17:25;35.78;;;19.45;;
39728;SDS011;25402;42.004;23.088;2024-03-07T08:19:54;7.30;;;4.25;;
39728;SDS011;25402;42.004;23.088;2024-03-07T08:22:22;9.40;;;4.63;;
39728;SDS011;25402;42.004;23.088;2024-03-07T08:24:50;10.25;;;3.65;;
39728;SDS011;25402;42.004;23.088;2024-03-07T08:27:17;5.20;;;2.83;;
39728;SDS011;25402;42.004;23.088;2024-03-07T08:29:44;2.65;;;2.13;;
39728;SDS011;25402;42.004;23.088;2024-03-07T08:32:11;4.28;;;2.17;;
39728;SDS011;25402;42.004;23.088;2024-03-07T08:34:38;4.45;;;2.50;;
39728;SDS011;25402;42.004;23.088;2024-03-07T08:37:06;5.90;;;2.50;;
39728;SDS011;25402;42.004;23.088;2024-03-07T08:39:33;4.05;;;2.35;;
39728;SDS011;25402;42.004;23.088;2024-03-07T08:42:00;7.63;;;2.97;;
39728;SDS011;25402;42.004;23.088;2024-03-07T08:44:27;5.25;;;2.70;;
39728;SDS011;25402;42.004;23.088;2024-03-07T08:46:55;5.50;;;2.60;;
39728;SDS011;25402;42.004;23.088;2024-03-07T08:49:22;4.65;;;2.60;;
39728;SDS011;25402;42.004;23.088;2024-03-07T08:51:49;4.47;;;2.90;;
39728;SDS011;25402;42.004;23.088;2024-03-07T08:54:18;5.63;;;2.95;;
39728;SDS011;25402;42.004;23.088;2024-03-07T08:56:45;4.50;;;2.65;;
39728;SDS011;25402;42.004;23.088;2024-03-07T08:59:12;3.97;;;2.45;;
39728;SDS011;25402;42.004;23.088;2024-03-07T09:01:42;6.72;;;2.70;;
39728;SDS011;25402;42.004;23.088;2024-03-07T09:04:09;4.55;;;2.58;;
39728;SDS011;25402;42.004;23.088;2024-03-07T09:06:37;6.18;;;2.83;;
39728;SDS011;25402;42.004;23.088;2024-03-07T09:09:04;5.05;;;2.33;;
39728;SDS011;25402;42.004;23.088;2024-03-07T09:11:35;3.88;;;2.45;;
39728;SDS011;25402;42.004;23.088;2024-03-07T09:14:03;6.57;;;2.70;;
39728;SDS011;25402;42.004;23.088;2024-03-07T09:16:34;14.88;;;5.10;;
39728;SDS011;25402;42.004;23.088;2024-03-07T09:19:01;9.65;;;2.85;;
39728;SDS011;25402;42.004;23.088;2024-03-07T09:21:29;2.80;;;1.65;;
39728;SDS011;25402;42.004;23.088;2024-03-07T09:23:56;2.28;;;1.60;;
39728;SDS011;25402;42.004;23.088;2024-03-07T09:26:23;3.00;;;1.45;;
39728;SDS011;25402;42.004;23.088;2024-03-07T09:28:51;4.55;;;2.00;;
39728;SDS011;25402;42.004;23.088;2024-03-07T09:31:20;8.18;;;2.97;;
39728;SDS011;25402;42.004;23.088;2024-03-07T09:33:47;9.52;;;1.90;;
39728;SDS011;25402;42.004;23.088;2024-03-07T09:36:15;3.72;;;1.50;;
39728;SDS011;25402;42.004;23.088;2024-03-07T09:38:44;4.22;;;1.55;;
39728;SDS011;25402;42.004;23.088;2024-03-07T09:41:11;2.67;;;1.40;;
39728;SDS011;25402;42.004;23.088;2024-03-07T09:43:41;2.63;;;1.50;;
39728;SDS011;25402;42.004;23.088;2024-03-07T09:46:13;2.80;;;1.15;;
39728;SDS011;25402;42.004;23.088;2024-03-07T09:48:43;3.30;;;1.60;;
39728;SDS011;25402;42.004;23.088;2024-03-07T09:51:10;11.00;;;4.60;;
39728;SDS011;25402;42.004;23.088;2024-03-07T09:53:43;7.55;;;3.00;;
39728;SDS011;25402;42.004;23.088;2024-03-07T09:56:13;6.20;;;3.20;;
39728;SDS011;25402;42.004;23.088;2024-03-07T09:58:43;4.07;;;2.50;;
39728;SDS011;25402;42.004;23.088;2024-03-07T10:01:17;5.38;;;3.13;;
39728;SDS011;25402;42.004;23.088;2024-03-07T10:03:47;10.63;;;6.88;;
39728;SDS011;25402;42.004;23.088;2024-03-07T10:06:15;6.60;;;1.90;;
39728;SDS011;25402;42.004;23.088;2024-03-07T10:08:42;7.78;;;2.40;;
39728;SDS011;25402;42.004;23.088;2024-03-07T10:11:10;7.47;;;2.17;;
39728;SDS011;25402;42.004;23.088;2024-03-07T10:13:39;6.45;;;3.25;;
39728;SDS011;25402;42.004;23.088;2024-03-07T10:16:06;4.75;;;2.20;;
39728;SDS011;25402;42.004;23.088;2024-03-07T10:18:35;5.93;;;3.40;;
39728;SDS011;25402;42.004;23.088;2024-03-07T10:21:09;3.53;;;1.83;;
39728;SDS011;25402;42.004;23.088;2024-03-07T10:23:36;3.55;;;2.15;;
39728;SDS011;25402;42.004;23.088;2024-03-07T10:26:05;4.25;;;1.80;;
39728;SDS011;25402;42.004;23.088;2024-03-07T10:28:32;2.55;;;1.35;;
39728;SDS011;25402;42.004;23.088;2024-03-07T10:31:00;5.22;;;1.80;;
39728;SDS011;25402;42.004;23.088;2024-03-07T10:33:28;2.55;;;1.50;;
39728;SDS011;25402;42.004;23.088;2024-03-07T10:36:00;7.05;;;2.08;;
39728;SDS011;25402;42.004;23.088;2024-03-07T10:38:27;6.80;;;2.58;;
39728;SDS011;25402;42.004;23.088;2024-03-07T10:40:55;8.45;;;5.00;;
39728;SDS011;25402;42.004;23.088;2024-03-07T10:43:22;5.00;;;2.40;;
39728;SDS011;25402;42.004;23.088;2024-03-07T10:45:51;1.63;;;1.15;;
39728;SDS011;25402;42.004;23.088;2024-03-07T10:48:21;2.35;;;1.70;;
39728;SDS011;25402;42.004;23.088;2024-03-07T10:50:59;2.45;;;1.38;;
39728;SDS011;25402;42.004;23.088;2024-03-07T10:53:37;2.90;;;1.30;;
39728;SDS011;25402;42.004;23.088;2024-03-07T10:56:17;7.35;;;1.60;;
39728;SDS011;25402;42.004;23.088;2024-03-07T10:58:53;5.18;;;1.23;;
39728;SDS011;25402;42.004;23.088;2024-03-07T11:01:26;2.55;;;1.55;;
39728;SDS011;25402;42.004;23.088;2024-03-07T11:03:59;3.50;;;1.90;;
39728;SDS011;25402;42.004;23.088;2024-03-07T11:06:30;2.97;;;1.85;;
39728;SDS011;25402;42.004;23.088;2024-03-07T11:09:02;7.55;;;2.63;;
39728;SDS011;25402;42.004;23.088;2024-03-07T11:11:36;3.50;;;1.77;;
39728;SDS011;25402;42.004;23.088;2024-03-07T11:14:11;2.63;;;1.77;;
39728;SDS011;25402;42.004;23.088;2024-03-07T11:16:41;5.50;;;2.63;;
39728;SDS011;25402;42.004;23.088;2024-03-07T11:22:05;7.25;;;2.75;;
39728;SDS011;25402;42.004;23.088;2024-03-07T11:24:40;7.25;;;4.25;;
39728;SDS011;25402;42.004;23.088;2024-03-07T11:27:09;11.13;;;4.15;;
39728;SDS011;25402;42.004;23.088;2024-03-07T11:29:43;14.93;;;6.18;;
39728;SDS011;25402;42.004;23.088;2024-03-07T11:32:18;13.85;;;4.75;;
39728;SDS011;25402;42.004;23.088;2024-03-07T11:34:46;16.92;;;5.03;;
39728;SDS011;25402;42.004;23.088;2024-03-07T11:37:18;23.88;;;8.32;;
39728;SDS011;25402;42.004;23.088;2024-03-07T11:39:48;11.70;;;3.60;;
39728;SDS011;25402;42.004;23.088;2024-03-07T11:42:25;4.18;;;2.45;;
39728;SDS011;25402;42.004;23.088;2024-03-07T11:44:53;5.20;;;2.03;;
39728;SDS011;25402;42.004;23.088;2024-03-07T11:47:22;5.95;;;1.90;;
39728;SDS011;25402;42.004;23.088;2024-03-07T11:49:52;5.80;;;1.98;;
39728;SDS011;25402;42.004;23.088;2024-03-07T11:52:20;8.93;;;2.05;;
39728;SDS011;25402;42.004;23.088;2024-03-07T11:54:47;2.85;;;1.52;;
39728;SDS011;25402;42.004;23.088;2024-03-07T11:57:17;6.53;;;2.40;;
39728;SDS011;25402;42.004;23.088;2024-03-07T11:59:51;3.70;;;1.50;;
39728;SDS011;25402;42.004;23.088;2024-03-07T12:02:19;3.95;;;1.55;;
39728;SDS011;25402;42.004;23.088;2024-03-07T12:04:47;2.58;;;1.17;;
39728;SDS011;25402;42.004;23.088;2024-03-07T12:07:15;2.63;;;1.42;;
39728;SDS011;25402;42.004;23.088;2024-03-07T12:09:45;4.00;;;1.27;;
39728;SDS011;25402;42.004;23.088;2024-03-07T12:12:16;2.53;;;1.10;;
39728;SDS011;25402;42.004;23.088;2024-03-07T12:14:43;2.05;;;1.08;;
39728;SDS011;25402;42.004;23.088;2024-03-07T12:17:11;2.55;;;1.02;;
39728;SDS011;25402;42.004;23.088;2024-03-07T12:19:38;2.60;;;1.00;;
39728;SDS011;25402;42.004;23.088;2024-03-07T12:22:07;2.78;;;1.08;;
39728;SDS011;25402;42.004;23.088;2024-03-07T12:24:38;3.35;;;1.27;;
39728;SDS011;25402;42.004;23.088;2024-03-07T12:27:09;3.65;;;1.30;;
39728;SDS011;25402;42.004;23.088;2024-03-07T12:29:38;1.75;;;0.80;;
39728;SDS011;25402;42.004;23.088;2024-03-07T12:32:06;3.80;;;1.20;;
39728;SDS011;25402;42.004;23.088;2024-03-07T12:34:35;2.72;;;1.10;;
39728;SDS011;25402;42.004;23.088;2024-03-07T12:37:06;3.08;;;1.13;;
39728;SDS011;25402;42.004;23.088;2024-03-07T12:39:34;2.63;;;0.98;;
39728;SDS011;25402;42.004;23.088;2024-03-07T12:42:13;2.95;;;1.10;;
39728;SDS011;25402;42.004;23.088;2024-03-07T12:44:42;5.68;;;1.10;;
39728;SDS011;25402;42.004;23.088;2024-03-07T12:47:11;3.90;;;1.20;;
39728;SDS011;25402;42.004;23.088;2024-03-07T12:49:42;1.90;;;0.77;;
39728;SDS011;25402;42.004;23.088;2024-03-07T12:52:09;2.22;;;0.82;;
39728;SDS011;25402;42.004;23.088;2024-03-07T12:54:38;1.85;;;1.02;;
39728;SDS011;25402;42.004;23.088;2024-03-07T12:57:06;4.15;;;1.98;;
39728;SDS011;25402;42.004;23.088;2024-03-07T12:59:36;3.10;;;1.60;;
39728;SDS011;25402;42.004;23.088;2024-03-07T13:02:06;6.97;;;2.47;;
39728;SDS011;25402;42.004;23.088;2024-03-07T13:04:33;7.65;;;4.10;;
39728;SDS011;25402;42.004;23.088;2024-03-07T13:07:02;11.27;;;3.63;;
39728;SDS011;25402;42.004;23.088;2024-03-07T13:09:30;6.88;;;3.10;;
39728;SDS011;25402;42.004;23.088;2024-03-07T13:11:57;19.27;;;8.15;;
39728;SDS011;25402;42.004;23.088;2024-03-07T13:14:25;8.70;;;3.88;;
39728;SDS011;25402;42.004;23.088;2024-03-07T13:16:57;11.73;;;4.88;;
39728;SDS011;25402;42.004;23.088;2024-03-07T13:19:25;8.10;;;3.42;;
39728;SDS011;25402;42.004;23.088;2024-03-07T13:21:52;4.38;;;2.38;;
39728;SDS011;25402;42.004;23.088;2024-03-07T13:24:20;7.53;;;2.80;;
39728;SDS011;25402;42.004;23.088;2024-03-07T13:26:47;5.75;;;2.35;;
39728;SDS011;25402;42.004;23.088;2024-03-07T13:29:14;5.15;;;2.22;;
39728;SDS011;25402;42.004;23.088;2024-03-07T13:31:42;5.03;;;1.98;;
39728;SDS011;25402;42.004;23.088;2024-03-07T13:34:11;3.45;;;2.15;;
39728;SDS011;25402;42.004;23.088;2024-03-07T13:36:39;3.92;;;2.15;;
39728;SDS011;25402;42.004;23.088;2024-03-07T13:39:06;5.35;;;2.00;;
39728;SDS011;25402;42.004;23.088;2024-03-07T13:41:36;3.22;;;1.50;;
39728;SDS011;25402;42.004;23.088;2024-03-07T13:44:04;3.28;;;1.70;;
39728;SDS011;25402;42.004;23.088;2024-03-07T13:46:31;4.32;;;1.40;;
39728;SDS011;25402;42.004;23.088;2024-03-07T13:48:59;2.67;;;1.48;;
39728;SDS011;25402;42.004;23.088;2024-03-07T13:51:36;8.05;;;1.30;;
39728;SDS011;25402;42.004;23.088;2024-03-07T13:54:06;3.15;;;1.70;;
39728;SDS011;25402;42.004;23.088;2024-03-07T13:56:52;6.68;;;2.10;;
39728;SDS011;25402;42.004;23.088;2024-03-07T13:59:40;4.75;;;1.80;;
39728;SDS011;25402;42.004;23.088;2024-03-07T14:05:59;5.30;;;1.73;;
39728;SDS011;25402;42.004;23.088;2024-03-07T14:20:59;4.10;;;1.77;;
39728;SDS011;25402;42.004;23.088;2024-03-07T14:27:06;5.05;;;1.58;;
39728;SDS011;25402;42.004;23.088;2024-03-07T14:29:46;4.70;;;1.77;;
39728;SDS011;25402;42.004;23.088;2024-03-07T14:32:17;7.10;;;1.80;;
39728;SDS011;25402;42.004;23.088;2024-03-07T14:34:47;3.95;;;1.50;;
39728;SDS011;25402;42.004;23.088;2024-03-07T14:37:26;3.15;;;1.70;;
39728;SDS011;25402;42.004;23.088;2024-03-07T14:40:05;5.15;;;2.35;;
39728;SDS011;25402;42.004;23.088;2024-03-07T14:42:37;4.18;;;1.63;;
39728;SDS011;25402;42.004;23.088;2024-03-07T14:45:09;7.35;;;2.10;;
39728;SDS011;25402;42.004;23.088;2024-03-07T14:47:39;4.60;;;1.73;;
39728;SDS011;25402;42.004;23.088;2024-03-07T14:50:07;10.02;;;3.17;;
39728;SDS011;25402;42.004;23.088;2024-03-07T14:52:36;5.00;;;2.50;;
39728;SDS011;25402;42.004;23.088;2024-03-07T14:55:08;5.45;;;2.58;;
39728;SDS011;25402;42.004;23.088;2024-03-07T14:57:38;6.20;;;2.25;;